createdAt,value
2018-09-06T00:01:22.409Z,15.90
2018-09-06T00:03:50.765Z,15.10
2018-09-06T00:06:19.173Z,14.17
2018-09-06T00:08:47.557Z,15.90
2018-09-06T00:11:15.989Z,15.03
2018-09-06T00:13:44.348Z,15.43
2018-09-06T00:16:12.725Z,15.07
2018-09-06T00:18:41.072Z,15.67
2018-09-06T00:21:09.484Z,15.67
2018-09-06T00:23:37.825Z,15.60
2018-09-06T00:26:06.569Z,15.30
2018-09-06T00:28:34.920Z,15.67
2018-09-06T00:31:03.289Z,15.43
2018-09-06T00:33:31.665Z,16.27
2018-09-06T00:36:00.005Z,16.30
2018-09-06T00:38:28.389Z,16.47
2018-09-06T00:40:56.782Z,16.63
2018-09-06T00:43:25.145Z,17.03
2018-09-06T00:45:53.483Z,17.70
2018-09-06T00:48:22.336Z,16.83
2018-09-06T00:50:50.680Z,15.47
2018-09-06T00:53:19.056Z,17.20
2018-09-06T00:55:47.440Z,16.73
2018-09-06T00:58:15.797Z,17.47
2018-09-06T01:00:44.133Z,16.87
2018-09-06T01:03:12.483Z,18.23
2018-09-06T01:05:40.805Z,18.50
2018-09-06T01:08:09.169Z,17.67
2018-09-06T01:10:37.524Z,18.23
2018-09-06T01:13:05.912Z,20.37
2018-09-06T01:15:34.243Z,19.10
2018-09-06T01:18:02.596Z,18.43
2018-09-06T01:20:30.932Z,19.20
2018-09-06T01:22:59.300Z,20.13
2018-09-06T01:25:31.792Z,19.27
2018-09-06T01:28:00.156Z,18.40
2018-09-06T01:30:28.516Z,18.60
2018-09-06T01:32:56.909Z,20.43
2018-09-06T01:35:25.530Z,18.90
2018-09-06T01:37:53.897Z,19.77
2018-09-06T01:40:22.308Z,20.30
2018-09-06T01:42:50.676Z,18.03
2018-09-06T01:45:19.009Z,17.10
2018-09-06T01:47:47.356Z,17.17
2018-09-06T01:50:15.848Z,17.70
2018-09-06T01:52:44.232Z,16.17
2018-09-06T01:55:12.565Z,16.77
2018-09-06T01:57:40.961Z,17.13
2018-09-06T02:00:09.352Z,18.07
2018-09-06T02:02:37.704Z,17.30
2018-09-06T02:05:06.072Z,20.23
2018-09-06T02:07:34.445Z,19.67
2018-09-06T02:10:02.833Z,21.07
2018-09-06T02:12:31.176Z,24.60
2018-09-06T02:14:59.700Z,25.23
2018-09-06T02:17:28.064Z,23.27
2018-09-06T02:19:56.440Z,22.77
2018-09-06T02:22:24.936Z,22.70
2018-09-06T02:24:53.269Z,24.53
2018-09-06T02:27:21.602Z,23.90
2018-09-06T02:29:50.100Z,24.37
2018-09-06T02:32:18.885Z,23.87
2018-09-06T02:34:47.249Z,22.20
2018-09-06T02:37:15.587Z,23.30
2018-09-06T02:39:43.947Z,22.23
2018-09-06T02:42:12.280Z,22.03
2018-09-06T02:44:40.633Z,23.67
2018-09-06T02:47:08.964Z,21.37
2018-09-06T02:49:42.516Z,19.53
2018-09-06T02:52:10.835Z,20.67
2018-09-06T02:54:39.200Z,21.00
2018-09-06T02:57:07.572Z,21.63
2018-09-06T02:59:35.964Z,20.63
2018-09-06T03:02:04.304Z,19.07
2018-09-06T03:04:32.657Z,21.10
2018-09-06T03:07:00.996Z,21.17
2018-09-06T03:09:29.379Z,21.20
2018-09-06T03:12:00.232Z,21.33
2018-09-06T03:14:28.650Z,22.03
2018-09-06T03:16:57.088Z,18.77
2018-09-06T03:19:25.613Z,19.70
2018-09-06T03:21:54.024Z,19.67
2018-09-06T03:24:22.383Z,19.47
2018-09-06T03:26:50.723Z,19.17
2018-09-06T03:29:19.077Z,19.83
2018-09-06T03:31:47.428Z,21.43
2018-09-06T03:34:16.020Z,21.30
2018-09-06T03:36:44.349Z,22.67
2018-09-06T03:39:12.700Z,21.90
2018-09-06T03:41:41.037Z,23.27
2018-09-06T03:44:09.441Z,23.97
2018-09-06T03:46:37.768Z,24.50
2018-09-06T03:49:06.187Z,22.23
2018-09-06T03:51:34.584Z,21.53
2018-09-06T03:54:02.960Z,20.53
2018-09-06T03:56:31.296Z,21.90
2018-09-06T03:58:59.667Z,20.63
2018-09-06T04:01:28.231Z,21.77
2018-09-06T04:03:56.610Z,21.87
2018-09-06T04:06:24.948Z,22.67
2018-09-06T04:08:53.320Z,24.57
2018-09-06T04:11:21.652Z,22.90
2018-09-06T04:13:50.005Z,21.23
2018-09-06T04:16:18.344Z,19.97
2018-09-06T04:18:46.708Z,22.27
2018-09-06T04:21:15.059Z,22.87
2018-09-06T04:23:43.441Z,25.20
2018-09-06T04:26:11.801Z,26.60
2018-09-06T04:28:40.197Z,27.87
2018-09-06T04:31:08.594Z,24.30
2018-09-06T04:33:36.972Z,32.40
2018-09-06T04:36:05.420Z,26.37
2018-09-06T04:38:34.233Z,22.60
2018-09-06T04:41:03.353Z,21.30
2018-09-06T04:43:32.224Z,24.30
2018-09-06T04:46:01.614Z,29.73
2018-09-06T04:48:30.469Z,34.17
2018-09-06T04:50:58.816Z,43.20
2018-09-06T04:53:27.167Z,63.97
2018-09-06T04:55:55.504Z,84.93
2018-09-06T04:58:23.889Z,102.33
2018-09-06T05:00:52.215Z,104.63
2018-09-06T05:03:20.548Z,93.00
2018-09-06T05:05:48.920Z,88.17
2018-09-06T05:08:17.304Z,98.73
2018-09-06T05:10:45.929Z,103.77
2018-09-06T05:13:14.263Z,96.50
2018-09-06T05:15:42.668Z,114.20
2018-09-06T05:18:11.041Z,119.33
2018-09-06T05:20:39.452Z,117.37
2018-09-06T05:23:07.796Z,134.77
2018-09-06T05:25:36.685Z,126.50
2018-09-06T05:28:05.090Z,114.03
2018-09-06T05:30:33.487Z,108.30
2018-09-06T05:33:01.812Z,127.43
2018-09-06T05:35:30.791Z,118.33
2018-09-06T05:37:59.136Z,124.23
2018-09-06T05:40:27.500Z,99.20
2018-09-06T05:42:55.851Z,118.07
2018-09-06T05:45:24.213Z,103.47
2018-09-06T05:47:57.664Z,105.70
2018-09-06T05:50:26.748Z,121.90
2018-09-06T05:52:55.093Z,84.17
2018-09-06T05:55:24.024Z,110.53
2018-09-06T05:57:52.765Z,104.07
2018-09-06T06:00:26.311Z,102.57
2018-09-06T06:02:55.836Z,94.43
2018-09-06T06:05:24.314Z,103.00
2018-09-06T06:08:04.020Z,86.93
2018-09-06T06:10:32.364Z,93.53
2018-09-06T06:13:00.692Z,78.33
2018-09-06T06:15:29.077Z,77.07
2018-09-06T06:17:57.421Z,80.73
2018-09-06T06:20:25.773Z,80.67
2018-09-06T06:22:54.133Z,87.23
2018-09-06T06:25:22.504Z,76.00
2018-09-06T06:27:50.837Z,80.47
2018-09-06T06:30:19.184Z,73.00
2018-09-06T06:32:47.552Z,74.53
2018-09-06T06:35:15.948Z,80.47
2018-09-06T06:37:44.276Z,74.43
2018-09-06T06:40:12.619Z,76.13
2018-09-06T06:42:40.949Z,80.30
2018-09-06T06:45:09.729Z,85.40
2018-09-06T06:47:38.106Z,79.70
2018-09-06T06:50:06.508Z,84.00
2018-09-06T06:52:34.971Z,89.27
2018-09-06T06:55:03.381Z,96.10
2018-09-06T06:57:31.716Z,93.80
2018-09-06T07:00:00.048Z,84.00
2018-09-06T07:02:28.420Z,82.70
2018-09-06T07:04:57.365Z,82.00
2018-09-06T07:07:25.736Z,79.53
2018-09-06T07:09:54.055Z,82.80
2018-09-06T07:12:22.429Z,79.33
2018-09-06T07:14:50.760Z,78.97
2018-09-06T07:17:19.113Z,82.13
2018-09-06T07:19:47.557Z,72.73
2018-09-06T07:22:15.923Z,72.03
2018-09-06T07:24:44.301Z,78.00
2018-09-06T07:27:12.661Z,75.83
2018-09-06T07:29:41.100Z,70.80
2018-09-06T07:32:09.452Z,75.63
2018-09-06T07:34:37.783Z,78.00
2018-09-06T07:37:06.156Z,69.63
2018-09-06T07:39:34.488Z,69.27
2018-09-06T07:42:02.840Z,68.07
2018-09-06T07:44:31.175Z,58.63
2018-09-06T07:46:59.568Z,59.30
2018-09-06T07:49:27.883Z,58.33
2018-09-06T07:51:56.230Z,53.73
2018-09-06T07:54:24.572Z,48.27
2018-09-06T07:56:52.932Z,47.93
2018-09-06T07:59:21.260Z,41.70
2018-09-06T08:01:49.716Z,42.07
2018-09-06T08:04:18.217Z,43.03
2018-09-06T08:06:46.624Z,37.73
2018-09-06T08:09:14.961Z,39.67
2018-09-06T08:11:43.319Z,35.23
2018-09-06T08:14:11.677Z,34.83
2018-09-06T08:16:40.115Z,35.13
2018-09-06T08:19:08.487Z,35.40
2018-09-06T08:21:36.833Z,34.03
2018-09-06T08:24:05.183Z,31.20
2018-09-06T08:26:33.544Z,30.23
2018-09-06T08:29:02.249Z,28.90
2018-09-06T08:31:30.688Z,29.57
2018-09-06T08:33:58.968Z,28.57
2018-09-06T08:36:27.352Z,30.73
2018-09-06T08:38:55.693Z,27.20
2018-09-06T08:41:24.048Z,26.83
2018-09-06T08:43:53.072Z,27.20
2018-09-06T08:46:21.488Z,27.93
2018-09-06T08:48:50.195Z,28.43
2018-09-06T08:51:18.580Z,27.70
2018-09-06T08:53:46.921Z,27.63
2018-09-06T08:56:15.256Z,28.10
2018-09-06T08:58:44.052Z,28.33
2018-09-06T09:01:18.200Z,29.77
2018-09-06T09:03:46.540Z,28.87
2018-09-06T09:06:14.938Z,29.57
2018-09-06T09:08:43.330Z,29.70
2018-09-06T09:11:11.712Z,29.17
2018-09-06T09:13:40.105Z,28.63
2018-09-06T09:16:08.563Z,29.90
2018-09-06T09:18:36.895Z,28.27
2018-09-06T09:21:05.240Z,26.93
2018-09-06T09:23:33.607Z,26.67
2018-09-06T09:26:01.992Z,28.43
2018-09-06T09:28:30.353Z,26.93
2018-09-06T09:30:59.232Z,25.03
2018-09-06T09:33:27.648Z,22.90
2018-09-06T09:35:56.087Z,22.53
2018-09-06T09:38:24.424Z,21.77
2018-09-06T09:40:52.784Z,20.63
2018-09-06T09:43:21.490Z,29.00
2018-09-06T09:45:49.816Z,28.97
2018-09-06T09:48:18.218Z,30.83
2018-09-06T09:53:14.112Z,28.47
2018-09-06T09:55:42.877Z,28.37
2018-09-06T09:58:11.245Z,22.07
2018-09-06T10:00:41.116Z,21.13
2018-09-06T10:03:15.001Z,22.37
2018-09-06T10:05:54.903Z,22.37
2018-09-06T10:08:28.452Z,23.37
2018-09-06T10:10:56.877Z,20.77
2018-09-06T10:13:25.646Z,21.03
2018-09-06T10:15:54.320Z,20.33
2018-09-06T10:18:22.752Z,19.83
2018-09-06T10:20:51.111Z,18.37
2018-09-06T10:23:19.524Z,20.37
2018-09-06T10:25:47.867Z,21.80
2018-09-06T10:28:16.269Z,19.23
2018-09-06T10:30:44.940Z,17.50
2018-09-06T10:33:13.288Z,18.83
2018-09-06T10:35:41.632Z,17.03
2018-09-06T10:38:10.020Z,17.90
2018-09-06T10:40:38.608Z,18.87
2018-09-06T10:43:07.288Z,17.37
2018-09-06T10:45:35.753Z,18.90
2018-09-06T10:48:04.144Z,18.80
2018-09-06T10:50:32.864Z,19.60
2018-09-06T10:53:01.256Z,21.23
2018-09-06T10:55:29.628Z,22.03
2018-09-06T10:57:58.131Z,20.40
2018-09-06T11:00:28.124Z,19.63
2018-09-06T11:02:56.989Z,20.73
2018-09-06T11:05:25.397Z,20.67
2018-09-06T11:07:54.269Z,19.83
2018-09-06T11:10:22.880Z,22.00
2018-09-06T11:12:51.593Z,21.57
2018-09-06T11:15:20.226Z,22.30
2018-09-06T11:17:48.579Z,18.97
2018-09-06T11:20:16.941Z,19.73
2018-09-06T11:22:45.344Z,21.07
2018-09-06T11:25:13.660Z,18.60
2018-09-06T11:27:42.386Z,20.10
2018-09-06T11:30:10.748Z,18.20
2018-09-06T11:32:39.108Z,18.83
2018-09-06T11:35:07.537Z,17.97
2018-09-06T11:37:35.900Z,16.93
2018-09-06T11:40:04.403Z,17.60
2018-09-06T11:42:32.752Z,17.03
2018-09-06T11:45:01.136Z,18.00
2018-09-06T11:47:29.764Z,17.00
2018-09-06T11:49:57.985Z,16.57
2018-09-06T11:52:26.376Z,17.97
2018-09-06T11:54:54.730Z,19.83
2018-09-06T11:57:23.121Z,20.97
2018-09-06T11:59:51.513Z,19.20
2018-09-06T12:02:19.853Z,17.33
2018-09-06T12:04:48.352Z,15.87
2018-09-06T12:07:16.712Z,15.23
2018-09-06T12:09:45.109Z,15.47
2018-09-06T12:12:13.468Z,15.47
2018-09-06T12:14:41.840Z,17.47
2018-09-06T12:17:10.400Z,16.43
2018-09-06T12:19:38.791Z,17.57
2018-09-06T12:22:07.209Z,16.63
2018-09-06T12:24:35.569Z,19.33
2018-09-06T12:27:05.034Z,17.57
2018-09-06T12:29:33.412Z,17.27
2018-09-06T12:32:01.799Z,16.47
2018-09-06T12:34:30.171Z,15.93
2018-09-06T12:36:58.549Z,16.40
2018-09-06T12:39:26.944Z,15.27
2018-09-06T12:41:55.353Z,15.87
2018-09-06T12:44:23.725Z,17.50
2018-09-06T12:46:52.075Z,17.50
2018-09-06T12:49:20.476Z,15.93
2018-09-06T12:51:48.827Z,18.20
2018-09-06T12:54:17.200Z,17.10
2018-09-06T12:56:45.864Z,17.33
2018-09-06T12:59:14.255Z,16.07
2018-09-06T13:01:42.617Z,16.30
2018-09-06T13:04:10.968Z,17.47
2018-09-06T13:06:39.381Z,15.13
2018-09-06T13:09:08.232Z,15.17
2018-09-06T13:11:37.196Z,15.73
2018-09-06T13:14:05.580Z,17.00
2018-09-06T13:16:33.995Z,17.60
2018-09-06T13:19:02.620Z,16.00
2018-09-06T13:21:30.985Z,19.13
2018-09-06T13:23:59.324Z,16.93
2018-09-06T13:26:27.656Z,15.93
2018-09-06T13:28:55.996Z,16.50
2018-09-06T13:31:24.461Z,17.10
2018-09-06T13:33:52.816Z,16.93
2018-09-06T13:36:21.170Z,16.53
2018-09-06T13:38:49.492Z,16.27
2018-09-06T13:41:17.856Z,16.57
2018-09-06T13:43:46.190Z,16.30
2018-09-06T13:46:14.572Z,16.07
2018-09-06T13:48:42.897Z,16.07
2018-09-06T13:51:11.257Z,15.33
2018-09-06T13:53:39.591Z,14.20
2018-09-06T13:56:08.136Z,14.37
2018-09-06T13:58:36.463Z,13.73
2018-09-06T14:01:04.849Z,15.37
2018-09-06T14:03:33.183Z,14.10
2018-09-06T14:06:01.558Z,13.23
2018-09-06T14:08:29.888Z,12.73
2018-09-06T14:10:58.252Z,13.60
2018-09-06T14:13:26.616Z,12.63
2018-09-06T14:15:54.960Z,13.00
2018-09-06T14:18:23.328Z,13.03
2018-09-06T14:20:51.720Z,13.90
2018-09-06T14:23:20.048Z,12.97
2018-09-06T14:25:48.409Z,12.37
2018-09-06T14:28:16.772Z,12.03
2018-09-06T14:30:45.120Z,13.17
2018-09-06T14:33:13.456Z,13.50
2018-09-06T14:35:41.844Z,12.80
2018-09-06T14:38:11.011Z,13.67
2018-09-06T14:40:39.331Z,14.17
2018-09-06T14:43:07.668Z,13.87
2018-09-06T14:45:36.016Z,13.40
2018-09-06T14:48:04.979Z,13.70
2018-09-06T14:50:33.325Z,12.67
2018-09-06T14:53:01.773Z,14.47
2018-09-06T14:55:30.133Z,12.70
2018-09-06T14:57:58.480Z,12.57
2018-09-06T15:00:26.832Z,12.80
2018-09-06T15:02:56.319Z,12.67
2018-09-06T15:05:24.671Z,11.90
2018-09-06T15:07:53.190Z,12.40
2018-09-06T15:10:21.553Z,13.23
2018-09-06T15:12:49.917Z,11.53
2018-09-06T15:15:18.340Z,12.20
2018-09-06T15:17:46.672Z,12.20
2018-09-06T15:20:15.033Z,13.63
2018-09-06T15:22:43.365Z,13.13
2018-09-06T15:25:12.176Z,13.17
2018-09-06T15:27:40.550Z,12.23
2018-09-06T15:30:08.941Z,12.37
2018-09-06T15:32:37.280Z,13.47
2018-09-06T15:35:05.712Z,13.23
2018-09-06T15:37:34.060Z,14.40
2018-09-06T15:40:02.407Z,14.37
2018-09-06T15:42:30.768Z,15.07
2018-09-06T15:44:59.125Z,16.10
2018-09-06T15:47:28.063Z,14.67
2018-09-06T15:49:56.462Z,13.30
2018-09-06T15:52:24.761Z,15.60
2018-09-06T15:54:53.105Z,28.10
2018-09-06T15:57:21.468Z,165.23
2018-09-06T15:59:49.804Z,23.77
2018-09-06T16:02:28.092Z,20.13
2018-09-06T16:05:00.099Z,21.83
2018-09-06T16:07:31.831Z,24.00
2018-09-06T16:10:03.313Z,24.10
2018-09-06T16:12:33.355Z,26.10
2018-09-06T16:15:04.022Z,27.20
2018-09-06T16:17:37.552Z,39.73
2018-09-06T16:20:10.133Z,39.13
2018-09-06T16:22:40.765Z,43.53
2018-09-06T16:25:16.016Z,42.67
2018-09-06T16:27:51.406Z,42.40
2018-09-06T16:30:26.156Z,46.40
2018-09-06T16:32:56.697Z,49.23
2018-09-06T16:35:27.826Z,54.70
2018-09-06T16:38:00.500Z,54.93
2018-09-06T16:40:33.410Z,59.40
2018-09-06T16:43:04.452Z,53.97
2018-09-06T16:45:34.982Z,51.53
2018-09-06T16:48:08.171Z,45.27
2018-09-06T16:50:38.592Z,34.50
2018-09-06T16:53:11.104Z,29.30
2018-09-06T16:55:40.900Z,27.30
2018-09-06T16:58:11.191Z,26.17
2018-09-06T17:00:45.646Z,31.20
2018-09-06T17:03:19.201Z,31.17
2018-09-06T17:05:49.949Z,38.00
2018-09-06T17:08:22.113Z,33.47
2018-09-06T17:10:53.176Z,37.60
2018-09-06T17:13:24.992Z,46.50
2018-09-06T17:15:55.784Z,39.67
2018-09-06T17:18:27.176Z,36.87
2018-09-06T17:21:01.168Z,40.00
2018-09-06T17:23:31.410Z,44.10
2018-09-06T17:26:05.569Z,41.63
2018-09-06T17:28:38.883Z,40.80
2018-09-06T17:31:11.176Z,41.70
2018-09-06T17:40:49.118Z,41.13
2018-09-06T17:43:22.432Z,39.00
2018-09-06T17:45:52.175Z,62.13
2018-09-06T17:48:22.829Z,36.43
2018-09-06T17:50:54.802Z,35.93
2018-09-06T17:53:26.497Z,36.07
2018-09-06T17:55:56.870Z,39.57
2018-09-06T17:58:29.753Z,41.87
2018-09-06T18:04:19.172Z,37.07
2018-09-06T18:06:49.479Z,39.70
2018-09-06T18:09:21.655Z,41.90
2018-09-06T18:11:55.365Z,45.57
2018-09-06T18:14:32.597Z,36.73
2018-09-06T18:17:05.673Z,106.47
2018-09-06T18:19:39.386Z,36.40
2018-09-06T18:22:13.487Z,39.03
2018-09-06T18:24:49.660Z,33.53
2018-09-06T18:27:19.609Z,29.33
2018-09-06T18:29:50.764Z,33.37
2018-09-06T18:32:25.840Z,37.57
2018-09-06T18:35:00.987Z,42.20
2018-09-06T18:37:30.723Z,41.70
2018-09-06T18:40:03.917Z,47.10
2018-09-06T18:42:37.312Z,43.77
2018-09-06T18:45:08.083Z,51.40
2018-09-06T18:47:42.250Z,44.40
2018-09-06T18:50:11.868Z,43.47
2018-09-06T18:52:43.651Z,49.27
2018-09-06T18:55:13.591Z,46.60
2018-09-06T18:57:46.831Z,45.13
2018-09-06T19:00:23.362Z,51.33
2018-09-06T19:02:55.243Z,53.40
2018-09-06T19:05:25.362Z,53.37
2018-09-06T19:07:55.792Z,55.23
2018-09-06T19:10:25.590Z,57.67
2018-09-06T19:12:56.598Z,51.10
2018-09-06T19:15:27.267Z,55.60
2018-09-06T19:17:57.028Z,44.00
2018-09-06T19:20:28.611Z,45.67
2018-09-06T19:23:00.260Z,40.13
2018-09-06T19:25:31.904Z,46.80
2018-09-06T19:28:05.508Z,48.93
2018-09-06T19:30:35.211Z,46.60
2018-09-06T19:33:06.291Z,42.60
2018-09-06T19:35:35.907Z,39.60
2018-09-06T19:38:08.179Z,37.17
2018-09-06T19:40:41.638Z,45.23
2018-09-06T19:43:12.619Z,40.60
2018-09-06T19:45:46.626Z,45.27
2018-09-06T19:48:20.137Z,42.83
2018-09-06T19:50:50.664Z,43.17
2018-09-06T19:53:21.044Z,40.03
2018-09-06T19:55:51.171Z,41.17
2018-09-06T19:58:21.845Z,43.50
2018-09-06T20:00:54.659Z,43.10
2018-09-06T20:03:31.742Z,40.40
2018-09-06T20:06:05.481Z,43.17
2018-09-06T20:08:37.648Z,42.83
2018-09-06T20:11:12.280Z,43.23
2018-09-06T20:13:43.661Z,46.43
2018-09-06T20:16:14.735Z,41.17
2018-09-06T20:18:45.327Z,43.87
2018-09-06T20:21:22.812Z,44.23
2018-09-06T20:23:58.006Z,184.00
2018-09-06T20:26:28.100Z,41.47
2018-09-06T20:28:56.452Z,47.67
2018-09-06T20:31:24.836Z,42.80
2018-09-06T20:33:53.837Z,38.77
2018-09-06T20:36:22.439Z,38.57
2018-09-06T20:38:50.932Z,39.23
2018-09-06T20:41:19.267Z,36.67
2018-09-06T20:43:47.636Z,38.00
2018-09-06T20:46:15.980Z,38.37
2018-09-06T20:48:44.335Z,40.90
2018-09-06T20:51:12.668Z,37.57
2018-09-06T20:53:41.061Z,37.33
2018-09-06T20:56:09.392Z,37.50
2018-09-06T20:58:37.758Z,39.27
2018-09-06T21:01:06.145Z,43.57
2018-09-06T21:03:34.488Z,38.63
2018-09-06T21:06:03.079Z,36.13
2018-09-06T21:08:31.895Z,35.60
2018-09-06T21:11:00.270Z,36.53
2018-09-06T21:13:28.624Z,37.27
2018-09-06T21:15:57.008Z,38.70
2018-09-06T21:18:25.367Z,37.90
2018-09-06T21:20:53.712Z,37.17
2018-09-06T21:23:22.060Z,36.43
2018-09-06T21:25:50.655Z,36.70
2018-09-06T21:28:18.981Z,41.10
2018-09-06T21:30:47.409Z,39.03
2018-09-06T21:33:15.772Z,40.43
2018-09-06T21:35:44.144Z,40.83
2018-09-06T21:38:12.472Z,37.23
2018-09-06T21:40:40.836Z,40.67
2018-09-06T21:43:09.168Z,38.60
2018-09-06T21:45:37.545Z,37.53
2018-09-06T21:48:05.892Z,36.87
2018-09-06T21:50:34.248Z,38.53
2018-09-06T21:53:02.567Z,37.97
2018-09-06T21:55:30.943Z,42.23
2018-09-06T21:57:59.772Z,39.40
2018-09-06T22:00:28.192Z,36.57
2018-09-06T22:03:01.744Z,37.97
2018-09-06T22:05:30.089Z,36.77
2018-09-06T22:07:58.428Z,38.63
2018-09-06T22:10:26.781Z,36.00
2018-09-06T22:12:55.121Z,37.33
2018-09-06T22:15:23.525Z,33.63
2018-09-06T22:17:51.868Z,36.63
2018-09-06T22:20:20.233Z,36.23
2018-09-06T22:22:48.572Z,34.97
2018-09-06T22:25:16.939Z,33.13
2018-09-06T22:27:45.284Z,34.60
2018-09-06T22:30:13.784Z,39.13
2018-09-06T22:32:42.168Z,41.37
2018-09-06T22:35:10.534Z,41.33
2018-09-06T22:37:38.880Z,40.20
2018-09-06T22:40:07.252Z,40.13
2018-09-06T22:42:35.724Z,43.83
2018-09-06T22:45:04.223Z,42.73
2018-09-06T22:47:32.607Z,45.30
2018-09-06T22:50:00.959Z,43.80
2018-09-06T22:52:29.285Z,46.03
2018-09-06T22:54:57.641Z,43.23
2018-09-06T22:57:25.975Z,49.07
2018-09-06T22:59:54.536Z,43.30
2018-09-06T23:02:23.593Z,40.40
2018-09-06T23:04:51.951Z,43.17
2018-09-06T23:07:20.331Z,47.80
2018-09-06T23:09:48.744Z,50.43
2018-09-06T23:12:17.067Z,44.80
2018-09-06T23:14:45.424Z,50.13
2018-09-06T23:17:13.764Z,55.67
2018-09-06T23:19:42.152Z,64.40
2018-09-06T23:22:10.496Z,59.30
2018-09-06T23:24:38.848Z,61.57
2018-09-06T23:27:07.619Z,65.50
2018-09-06T23:29:35.981Z,75.73
2018-09-06T23:32:04.332Z,72.00
2018-09-06T23:34:35.794Z,68.97
2018-09-06T23:37:05.392Z,56.33
2018-09-06T23:39:33.975Z,57.73
2018-09-06T23:42:02.560Z,55.87
2018-09-06T23:44:30.933Z,54.43
2018-09-06T23:46:59.425Z,51.90
2018-09-06T23:49:28.008Z,50.93
2018-09-06T23:51:56.356Z,46.47
2018-09-06T23:54:24.720Z,49.80
2018-09-06T23:56:53.118Z,46.93
2018-09-06T23:59:21.432Z,44.40
